sensor_id;sensor_type;location;lat;lon;timestamp;P1;durP1;ratioP1;P2;durP2;ratioP2
18176;SDS011;9213;50.858;3.964;2023-05-24T00:02:09;13.27;;;4.50;;
18176;SDS011;9213;50.858;3.964;2023-05-24T00:04:38;15.10;;;4.70;;
18176;SDS011;9213;50.858;3.964;2023-05-24T00:07:05;14.87;;;4.33;;
18176;SDS011;9213;50.858;3.964;2023-05-24T00:09:32;12.73;;;4.07;;
18176;SDS011;9213;50.858;3.964;2023-05-24T00:12:00;17.07;;;4.33;;
18176;SDS011;9213;50.858;3.964;2023-05-24T00:14:28;13.33;;;4.47;;
18176;SDS011;9213;50.858;3.964;2023-05-24T00:16:54;12.87;;;4.50;;
18176;SDS011;9213;50.858;3.964;2023-05-24T00:19:21;7.10;;;3.67;;
18176;SDS011;9213;50.858;3.964;2023-05-24T00:21:49;16.23;;;4.00;;
18176;SDS011;9213;50.858;3.964;2023-05-24T00:24:16;11.17;;;4.33;;
18176;SDS011;9213;50.858;3.964;2023-05-24T00:26:43;16.30;;;4.57;;
18176;SDS011;9213;50.858;3.964;2023-05-24T00:29:12;13.50;;;4.23;;
18176;SDS011;9213;50.858;3.964;2023-05-24T00:31:39;12.27;;;4.00;;
18176;SDS011;9213;50.858;3.964;2023-05-24T00:34:06;11.33;;;3.90;;
18176;SDS011;9213;50.858;3.964;2023-05-24T00:36:33;8.37;;;3.73;;
18176;SDS011;9213;50.858;3.964;2023-05-24T00:39:03;12.47;;;3.87;;
18176;SDS011;9213;50.858;3.964;2023-05-24T00:41:30;12.87;;;4.83;;
18176;SDS011;9213;50.858;3.964;2023-05-24T00:43:57;7.50;;;3.87;;
18176;SDS011;9213;50.858;3.964;2023-05-24T00:46:26;17.53;;;4.17;;
18176;SDS011;9213;50.858;3.964;2023-05-24T00:48:54;12.37;;;4.10;;
18176;SDS011;9213;50.858;3.964;2023-05-24T00:51:22;9.10;;;4.33;;
18176;SDS011;9213;50.858;3.964;2023-05-24T00:53:51;14.07;;;4.33;;
18176;SDS011;9213;50.858;3.964;2023-05-24T00:56:19;17.83;;;4.00;;
18176;SDS011;9213;50.858;3.964;2023-05-24T00:58:46;10.03;;;4.10;;
18176;SDS011;9213;50.858;3.964;2023-05-24T01:01:14;20.53;;;4.17;;
18176;SDS011;9213;50.858;3.964;2023-05-24T01:03:42;15.33;;;5.20;;
18176;SDS011;9213;50.858;3.964;2023-05-24T01:06:10;13.00;;;5.10;;
18176;SDS011;9213;50.858;3.964;2023-05-24T01:11:38;14.03;;;4.17;;
18176;SDS011;9213;50.858;3.964;2023-05-24T01:14:15;11.70;;;3.70;;
18176;SDS011;9213;50.858;3.964;2023-05-24T01:16:48;13.73;;;4.60;;
18176;SDS011;9213;50.858;3.964;2023-05-24T01:19:38;15.70;;;4.20;;
18176;SDS011;9213;50.858;3.964;2023-05-24T01:22:16;14.37;;;3.93;;
18176;SDS011;9213;50.858;3.964;2023-05-24T01:24:58;11.30;;;3.93;;
18176;SDS011;9213;50.858;3.964;2023-05-24T01:27:30;8.33;;;3.67;;
18176;SDS011;9213;50.858;3.964;2023-05-24T01:29:59;17.43;;;4.30;;
18176;SDS011;9213;50.858;3.964;2023-05-24T01:32:28;17.63;;;4.70;;
18176;SDS011;9213;50.858;3.964;2023-05-24T01:34:56;17.83;;;3.97;;
18176;SDS011;9213;50.858;3.964;2023-05-24T01:37:23;12.60;;;4.40;;
18176;SDS011;9213;50.858;3.964;2023-05-24T01:39:50;9.30;;;4.03;;
18176;SDS011;9213;50.858;3.964;2023-05-24T01:42:21;18.40;;;4.43;;
18176;SDS011;9213;50.858;3.964;2023-05-24T01:44:54;15.73;;;4.83;;
18176;SDS011;9213;50.858;3.964;2023-05-24T01:47:36;14.63;;;4.43;;
18176;SDS011;9213;50.858;3.964;2023-05-24T01:50:13;12.80;;;4.40;;
18176;SDS011;9213;50.858;3.964;2023-05-24T01:52:43;13.60;;;4.53;;
18176;SDS011;9213;50.858;3.964;2023-05-24T01:55:12;10.87;;;4.43;;
18176;SDS011;9213;50.858;3.964;2023-05-24T01:57:42;12.87;;;4.30;;
18176;SDS011;9213;50.858;3.964;2023-05-24T02:00:13;13.43;;;4.70;;
18176;SDS011;9213;50.858;3.964;2023-05-24T02:02:41;15.13;;;4.73;;
18176;SDS011;9213;50.858;3.964;2023-05-24T02:05:08;11.77;;;4.47;;
18176;SDS011;9213;50.858;3.964;2023-05-24T02:07:35;15.63;;;4.83;;
18176;SDS011;9213;50.858;3.964;2023-05-24T02:10:03;12.73;;;4.57;;
18176;SDS011;9213;50.858;3.964;2023-05-24T02:12:30;20.80;;;4.50;;
18176;SDS011;9213;50.858;3.964;2023-05-24T02:14:57;14.70;;;4.10;;
18176;SDS011;9213;50.858;3.964;2023-05-24T02:17:25;14.90;;;4.50;;
18176;SDS011;9213;50.858;3.964;2023-05-24T02:19:52;13.10;;;4.47;;
18176;SDS011;9213;50.858;3.964;2023-05-24T02:22:19;10.93;;;4.70;;
18176;SDS011;9213;50.858;3.964;2023-05-24T02:24:47;15.20;;;5.47;;
18176;SDS011;9213;50.858;3.964;2023-05-24T02:27:14;13.50;;;4.33;;
18176;SDS011;9213;50.858;3.964;2023-05-24T02:29:41;13.77;;;4.77;;
18176;SDS011;9213;50.858;3.964;2023-05-24T02:32:07;14.03;;;4.50;;
18176;SDS011;9213;50.858;3.964;2023-05-24T02:34:36;12.57;;;4.60;;
18176;SDS011;9213;50.858;3.964;2023-05-24T02:37:03;12.90;;;4.33;;
18176;SDS011;9213;50.858;3.964;2023-05-24T02:39:30;10.30;;;4.77;;
18176;SDS011;9213;50.858;3.964;2023-05-24T02:41:57;13.33;;;4.47;;
18176;SDS011;9213;50.858;3.964;2023-05-24T02:44:24;12.17;;;4.37;;
18176;SDS011;9213;50.858;3.964;2023-05-24T02:46:51;14.50;;;4.40;;
18176;SDS011;9213;50.858;3.964;2023-05-24T02:49:18;15.27;;;4.70;;
18176;SDS011;9213;50.858;3.964;2023-05-24T02:51:46;8.37;;;4.07;;
18176;SDS011;9213;50.858;3.964;2023-05-24T02:54:13;13.57;;;4.53;;
18176;SDS011;9213;50.858;3.964;2023-05-24T02:56:41;10.70;;;4.47;;
18176;SDS011;9213;50.858;3.964;2023-05-24T02:59:08;14.50;;;5.33;;
18176;SDS011;9213;50.858;3.964;2023-05-24T03:01:35;11.30;;;4.73;;
18176;SDS011;9213;50.858;3.964;2023-05-24T03:04:02;17.10;;;4.63;;
18176;SDS011;9213;50.858;3.964;2023-05-24T03:06:29;18.03;;;5.23;;
18176;SDS011;9213;50.858;3.964;2023-05-24T03:08:58;24.17;;;5.67;;
18176;SDS011;9213;50.858;3.964;2023-05-24T03:11:25;20.33;;;5.23;;
18176;SDS011;9213;50.858;3.964;2023-05-24T03:13:51;16.20;;;5.57;;
18176;SDS011;9213;50.858;3.964;2023-05-24T03:16:18;13.13;;;4.77;;
18176;SDS011;9213;50.858;3.964;2023-05-24T03:18:45;17.13;;;5.47;;
18176;SDS011;9213;50.858;3.964;2023-05-24T03:21:14;13.23;;;5.10;;
18176;SDS011;9213;50.858;3.964;2023-05-24T03:23:41;17.20;;;4.63;;
18176;SDS011;9213;50.858;3.964;2023-05-24T03:26:10;14.17;;;4.90;;
18176;SDS011;9213;50.858;3.964;2023-05-24T03:28:37;14.30;;;4.73;;
18176;SDS011;9213;50.858;3.964;2023-05-24T03:31:04;14.63;;;4.70;;
18176;SDS011;9213;50.858;3.964;2023-05-24T03:33:31;16.90;;;5.17;;
18176;SDS011;9213;50.858;3.964;2023-05-24T03:35:58;20.00;;;5.07;;
18176;SDS011;9213;50.858;3.964;2023-05-24T03:38:26;20.80;;;5.50;;
18176;SDS011;9213;50.858;3.964;2023-05-24T03:40:53;18.77;;;5.17;;
18176;SDS011;9213;50.858;3.964;2023-05-24T03:43:21;17.80;;;5.70;;
18176;SDS011;9213;50.858;3.964;2023-05-24T03:45:48;14.10;;;4.90;;
18176;SDS011;9213;50.858;3.964;2023-05-24T03:48:15;18.30;;;5.57;;
18176;SDS011;9213;50.858;3.964;2023-05-24T03:50:44;16.37;;;5.50;;
18176;SDS011;9213;50.858;3.964;2023-05-24T03:53:12;19.03;;;6.30;;
18176;SDS011;9213;50.858;3.964;2023-05-24T03:55:38;19.73;;;4.90;;
18176;SDS011;9213;50.858;3.964;2023-05-24T03:58:05;20.93;;;5.10;;
18176;SDS011;9213;50.858;3.964;2023-05-24T04:00:34;14.10;;;4.67;;
18176;SDS011;9213;50.858;3.964;2023-05-24T04:03:00;11.87;;;5.00;;
18176;SDS011;9213;50.858;3.964;2023-05-24T04:05:30;14.13;;;5.17;;
18176;SDS011;9213;50.858;3.964;2023-05-24T04:07:57;12.73;;;4.83;;
18176;SDS011;9213;50.858;3.964;2023-05-24T04:10:24;20.40;;;5.43;;
18176;SDS011;9213;50.858;3.964;2023-05-24T04:12:51;14.27;;;5.43;;
18176;SDS011;9213;50.858;3.964;2023-05-24T04:15:18;14.73;;;5.63;;
18176;SDS011;9213;50.858;3.964;2023-05-24T04:17:46;16.27;;;5.27;;
18176;SDS011;9213;50.858;3.964;2023-05-24T04:20:18;15.77;;;4.97;;
18176;SDS011;9213;50.858;3.964;2023-05-24T04:22:46;19.63;;;5.33;;
18176;SDS011;9213;50.858;3.964;2023-05-24T04:25:13;12.80;;;5.47;;
18176;SDS011;9213;50.858;3.964;2023-05-24T04:27:40;14.63;;;5.70;;
18176;SDS011;9213;50.858;3.964;2023-05-24T04:30:09;15.83;;;6.17;;
18176;SDS011;9213;50.858;3.964;2023-05-24T04:32:37;15.13;;;6.30;;
18176;SDS011;9213;50.858;3.964;2023-05-24T04:35:06;17.63;;;5.63;;
18176;SDS011;9213;50.858;3.964;2023-05-24T04:37:33;13.93;;;6.17;;
18176;SDS011;9213;50.858;3.964;2023-05-24T04:40:00;16.83;;;6.30;;
18176;SDS011;9213;50.858;3.964;2023-05-24T04:42:29;16.77;;;6.23;;
18176;SDS011;9213;50.858;3.964;2023-05-24T04:44:56;12.83;;;5.40;;
18176;SDS011;9213;50.858;3.964;2023-05-24T04:47:24;13.50;;;5.33;;
18176;SDS011;9213;50.858;3.964;2023-05-24T04:49:51;16.73;;;6.13;;
18176;SDS011;9213;50.858;3.964;2023-05-24T04:52:19;22.10;;;5.53;;
18176;SDS011;9213;50.858;3.964;2023-05-24T04:54:47;17.13;;;5.40;;
18176;SDS011;9213;50.858;3.964;2023-05-24T04:57:15;19.33;;;6.47;;
18176;SDS011;9213;50.858;3.964;2023-05-24T04:59:42;20.60;;;6.60;;
18176;SDS011;9213;50.858;3.964;2023-05-24T05:02:09;27.10;;;5.70;;
18176;SDS011;9213;50.858;3.964;2023-05-24T05:04:36;20.20;;;5.60;;
18176;SDS011;9213;50.858;3.964;2023-05-24T05:07:03;14.90;;;5.03;;
18176;SDS011;9213;50.858;3.964;2023-05-24T05:09:31;16.47;;;5.23;;
18176;SDS011;9213;50.858;3.964;2023-05-24T05:11:58;24.93;;;6.67;;
18176;SDS011;9213;50.858;3.964;2023-05-24T05:14:25;19.63;;;5.43;;
18176;SDS011;9213;50.858;3.964;2023-05-24T05:16:52;17.93;;;5.27;;
18176;SDS011;9213;50.858;3.964;2023-05-24T05:19:19;16.60;;;5.37;;
18176;SDS011;9213;50.858;3.964;2023-05-24T05:21:45;15.83;;;5.37;;
18176;SDS011;9213;50.858;3.964;2023-05-24T05:24:13;14.53;;;5.37;;
18176;SDS011;9213;50.858;3.964;2023-05-24T05:26:42;14.23;;;5.83;;
18176;SDS011;9213;50.858;3.964;2023-05-24T05:29:09;20.80;;;6.90;;
18176;SDS011;9213;50.858;3.964;2023-05-24T05:31:36;16.40;;;5.07;;
18176;SDS011;9213;50.858;3.964;2023-05-24T05:34:03;17.17;;;5.77;;
18176;SDS011;9213;50.858;3.964;2023-05-24T05:36:33;18.50;;;5.37;;
18176;SDS011;9213;50.858;3.964;2023-05-24T05:39:04;14.70;;;6.93;;
18176;SDS011;9213;50.858;3.964;2023-05-24T05:41:33;22.73;;;5.90;;
18176;SDS011;9213;50.858;3.964;2023-05-24T05:44:05;20.67;;;6.73;;
18176;SDS011;9213;50.858;3.964;2023-05-24T05:46:32;16.80;;;6.00;;
18176;SDS011;9213;50.858;3.964;2023-05-24T05:48:59;21.23;;;7.10;;
18176;SDS011;9213;50.858;3.964;2023-05-24T05:51:26;22.90;;;7.20;;
18176;SDS011;9213;50.858;3.964;2023-05-24T05:53:53;27.20;;;7.30;;
18176;SDS011;9213;50.858;3.964;2023-05-24T05:56:20;21.23;;;6.57;;
18176;SDS011;9213;50.858;3.964;2023-05-24T05:58:46;22.23;;;6.27;;
18176;SDS011;9213;50.858;3.964;2023-05-24T06:01:15;17.90;;;6.03;;
18176;SDS011;9213;50.858;3.964;2023-05-24T06:03:42;24.03;;;6.93;;
18176;SDS011;9213;50.858;3.964;2023-05-24T06:06:08;25.60;;;6.07;;
18176;SDS011;9213;50.858;3.964;2023-05-24T06:08:35;16.37;;;5.13;;
18176;SDS011;9213;50.858;3.964;2023-05-24T06:11:04;17.33;;;5.77;;
18176;SDS011;9213;50.858;3.964;2023-05-24T06:13:31;18.87;;;5.40;;
18176;SDS011;9213;50.858;3.964;2023-05-24T06:15:58;15.23;;;5.60;;
18176;SDS011;9213;50.858;3.964;2023-05-24T06:18:27;21.70;;;5.87;;
18176;SDS011;9213;50.858;3.964;2023-05-24T06:20:54;16.17;;;5.33;;
18176;SDS011;9213;50.858;3.964;2023-05-24T06:23:21;17.83;;;5.50;;
18176;SDS011;9213;50.858;3.964;2023-05-24T06:25:48;20.27;;;5.40;;
18176;SDS011;9213;50.858;3.964;2023-05-24T06:28:15;12.73;;;5.23;;
18176;SDS011;9213;50.858;3.964;2023-05-24T06:30:42;17.80;;;5.03;;
18176;SDS011;9213;50.858;3.964;2023-05-24T06:33:09;19.20;;;5.13;;
18176;SDS011;9213;50.858;3.964;2023-05-24T06:35:37;13.20;;;4.73;;
18176;SDS011;9213;50.858;3.964;2023-05-24T06:38:04;18.73;;;5.20;;
18176;SDS011;9213;50.858;3.964;2023-05-24T06:40:31;20.63;;;5.93;;
18176;SDS011;9213;50.858;3.964;2023-05-24T06:42:58;16.20;;;5.00;;
18176;SDS011;9213;50.858;3.964;2023-05-24T06:45:24;19.47;;;5.23;;
18176;SDS011;9213;50.858;3.964;2023-05-24T06:47:52;13.43;;;4.70;;
18176;SDS011;9213;50.858;3.964;2023-05-24T06:50:19;18.53;;;4.67;;
18176;SDS011;9213;50.858;3.964;2023-05-24T06:52:47;17.83;;;5.73;;
18176;SDS011;9213;50.858;3.964;2023-05-24T06:55:15;16.50;;;5.33;;
18176;SDS011;9213;50.858;3.964;2023-05-24T06:57:42;15.80;;;4.77;;
18176;SDS011;9213;50.858;3.964;2023-05-24T07:00:09;17.57;;;5.10;;
18176;SDS011;9213;50.858;3.964;2023-05-24T07:02:37;16.67;;;4.83;;
18176;SDS011;9213;50.858;3.964;2023-05-24T07:05:05;17.43;;;5.40;;
18176;SDS011;9213;50.858;3.964;2023-05-24T07:07:36;14.57;;;5.60;;
18176;SDS011;9213;50.858;3.964;2023-05-24T07:10:05;16.70;;;5.60;;
18176;SDS011;9213;50.858;3.964;2023-05-24T07:12:34;15.23;;;5.70;;
18176;SDS011;9213;50.858;3.964;2023-05-24T07:15:01;16.07;;;5.10;;
18176;SDS011;9213;50.858;3.964;2023-05-24T07:17:28;20.67;;;6.53;;
18176;SDS011;9213;50.858;3.964;2023-05-24T07:19:56;20.13;;;6.27;;
18176;SDS011;9213;50.858;3.964;2023-05-24T07:22:22;13.23;;;5.20;;
18176;SDS011;9213;50.858;3.964;2023-05-24T07:24:52;15.30;;;5.37;;
18176;SDS011;9213;50.858;3.964;2023-05-24T07:27:21;12.93;;;5.20;;
18176;SDS011;9213;50.858;3.964;2023-05-24T07:29:48;17.60;;;5.63;;
18176;SDS011;9213;50.858;3.964;2023-05-24T07:32:15;9.90;;;4.23;;
18176;SDS011;9213;50.858;3.964;2023-05-24T07:34:42;13.77;;;4.87;;
18176;SDS011;9213;50.858;3.964;2023-05-24T07:37:09;10.07;;;3.00;;
18176;SDS011;9213;50.858;3.964;2023-05-24T07:39:36;10.10;;;3.00;;
18176;SDS011;9213;50.858;3.964;2023-05-24T07:42:03;10.02;;;2.95;;
18176;SDS011;9213;50.858;3.964;2023-05-24T07:44:32;17.00;;;4.07;;
18176;SDS011;9213;50.858;3.964;2023-05-24T07:46:59;12.13;;;4.25;;
18176;SDS011;9213;50.858;3.964;2023-05-24T07:49:27;10.95;;;4.15;;
18176;SDS011;9213;50.858;3.964;2023-05-24T07:51:54;12.23;;;3.78;;
18176;SDS011;9213;50.858;3.964;2023-05-24T07:54:23;15.15;;;4.25;;
18176;SDS011;9213;50.858;3.964;2023-05-24T07:56:50;15.45;;;4.60;;
18176;SDS011;9213;50.858;3.964;2023-05-24T07:59:17;9.40;;;4.18;;
18176;SDS011;9213;50.858;3.964;2023-05-24T08:01:45;13.60;;;4.28;;
18176;SDS011;9213;50.858;3.964;2023-05-24T08:04:12;11.82;;;4.30;;
18176;SDS011;9213;50.858;3.964;2023-05-24T08:06:40;16.65;;;4.47;;
18176;SDS011;9213;50.858;3.964;2023-05-24T08:09:07;14.20;;;3.63;;
18176;SDS011;9213;50.858;3.964;2023-05-24T08:11:34;12.38;;;3.60;;
18176;SDS011;9213;50.858;3.964;2023-05-24T08:14:00;10.57;;;4.13;;
18176;SDS011;9213;50.858;3.964;2023-05-24T08:16:27;10.65;;;3.85;;
18176;SDS011;9213;50.858;3.964;2023-05-24T08:18:56;12.80;;;4.03;;
18176;SDS011;9213;50.858;3.964;2023-05-24T08:21:23;20.35;;;4.45;;
18176;SDS011;9213;50.858;3.964;2023-05-24T08:23:50;12.00;;;4.05;;
18176;SDS011;9213;50.858;3.964;2023-05-24T08:26:17;9.87;;;3.67;;
18176;SDS011;9213;50.858;3.964;2023-05-24T08:28:45;13.02;;;3.75;;
18176;SDS011;9213;50.858;3.964;2023-05-24T08:31:12;11.70;;;3.33;;
18176;SDS011;9213;50.858;3.964;2023-05-24T08:33:39;12.80;;;3.73;;
18176;SDS011;9213;50.858;3.964;2023-05-24T08:36:08;11.73;;;3.77;;
18176;SDS011;9213;50.858;3.964;2023-05-24T08:38:35;12.70;;;4.00;;
18176;SDS011;9213;50.858;3.964;2023-05-24T08:41:03;16.37;;;4.50;;
18176;SDS011;9213;50.858;3.964;2023-05-24T08:43:32;10.93;;;3.67;;
18176;SDS011;9213;50.858;3.964;2023-05-24T08:46:00;13.30;;;4.60;;
18176;SDS011;9213;50.858;3.964;2023-05-24T08:48:28;10.73;;;4.13;;
18176;SDS011;9213;50.858;3.964;2023-05-24T08:50:56;13.10;;;4.17;;
18176;SDS011;9213;50.858;3.964;2023-05-24T08:53:24;10.23;;;4.00;;
18176;SDS011;9213;50.858;3.964;2023-05-24T08:55:52;12.57;;;4.20;;
18176;SDS011;9213;50.858;3.964;2023-05-24T08:58:20;12.33;;;4.03;;
18176;SDS011;9213;50.858;3.964;2023-05-24T09:00:47;10.60;;;4.30;;
18176;SDS011;9213;50.858;3.964;2023-05-24T09:03:14;10.60;;;4.50;;
18176;SDS011;9213;50.858;3.964;2023-05-24T09:05:43;11.88;;;3.85;;
18176;SDS011;9213;50.858;3.964;2023-05-24T09:08:10;12.43;;;4.63;;
18176;SDS011;9213;50.858;3.964;2023-05-24T09:10:43;10.13;;;4.53;;
18176;SDS011;9213;50.858;3.964;2023-05-24T09:13:10;12.75;;;4.72;;
18176;SDS011;9213;50.858;3.964;2023-05-24T09:15:40;11.18;;;4.60;;
18176;SDS011;9213;50.858;3.964;2023-05-24T09:18:08;11.18;;;4.63;;
18176;SDS011;9213;50.858;3.964;2023-05-24T09:20:35;13.88;;;5.40;;
18176;SDS011;9213;50.858;3.964;2023-05-24T09:23:02;13.60;;;4.95;;
18176;SDS011;9213;50.858;3.964;2023-05-24T09:25:31;9.85;;;4.88;;
18176;SDS011;9213;50.858;3.964;2023-05-24T09:28:04;15.30;;;5.57;;
18176;SDS011;9213;50.858;3.964;2023-05-24T09:30:32;11.00;;;4.50;;
18176;SDS011;9213;50.858;3.964;2023-05-24T09:33:00;11.10;;;4.50;;
18176;SDS011;9213;50.858;3.964;2023-05-24T09:35:29;9.63;;;4.28;;
18176;SDS011;9213;50.858;3.964;2023-05-24T09:37:56;11.65;;;4.57;;
18176;SDS011;9213;50.858;3.964;2023-05-24T09:40:25;16.48;;;5.30;;
18176;SDS011;9213;50.858;3.964;2023-05-24T09:43:03;13.55;;;4.50;;
18176;SDS011;9213;50.858;3.964;2023-05-24T09:45:36;16.45;;;4.70;;
18176;SDS011;9213;50.858;3.964;2023-05-24T09:48:08;12.52;;;4.88;;
18176;SDS011;9213;50.858;3.964;2023-05-24T09:50:36;13.93;;;4.65;;
18176;SDS011;9213;50.858;3.964;2023-05-24T09:53:03;15.38;;;5.40;;
18176;SDS011;9213;50.858;3.964;2023-05-24T09:55:30;14.02;;;5.85;;
18176;SDS011;9213;50.858;3.964;2023-05-24T09:58:02;10.52;;;5.07;;
18176;SDS011;9213;50.858;3.964;2023-05-24T10:00:33;11.27;;;4.72;;
18176;SDS011;9213;50.858;3.964;2023-05-24T10:03:01;9.93;;;5.00;;
18176;SDS011;9213;50.858;3.964;2023-05-24T10:05:29;8.98;;;4.80;;
18176;SDS011;9213;50.858;3.964;2023-05-24T10:07:56;15.57;;;5.75;;
18176;SDS011;9213;50.858;3.964;2023-05-24T10:10:25;12.98;;;5.32;;
18176;SDS011;9213;50.858;3.964;2023-05-24T10:12:54;14.77;;;6.45;;
18176;SDS011;9213;50.858;3.964;2023-05-24T10:15:23;15.63;;;6.07;;
18176;SDS011;9213;50.858;3.964;2023-05-24T10:17:50;17.83;;;6.30;;
18176;SDS011;9213;50.858;3.964;2023-05-24T10:20:17;13.93;;;6.15;;
18176;SDS011;9213;50.858;3.964;2023-05-24T10:22:45;17.50;;;6.97;;
18176;SDS011;9213;50.858;3.964;2023-05-24T10:25:13;18.00;;;6.95;;
18176;SDS011;9213;50.858;3.964;2023-05-24T10:27:46;11.63;;;6.13;;
18176;SDS011;9213;50.858;3.964;2023-05-24T10:30:17;11.48;;;6.72;;
18176;SDS011;9213;50.858;3.964;2023-05-24T10:32:52;12.75;;;6.70;;
18176;SDS011;9213;50.858;3.964;2023-05-24T10:35:20;13.07;;;6.88;;
18176;SDS011;9213;50.858;3.964;2023-05-24T10:37:48;14.35;;;6.60;;
18176;SDS011;9213;50.858;3.964;2023-05-24T10:40:16;15.85;;;6.93;;
18176;SDS011;9213;50.858;3.964;2023-05-24T10:42:44;15.52;;;6.22;;
18176;SDS011;9213;50.858;3.964;2023-05-24T10:48:06;12.98;;;6.43;;
18176;SDS011;9213;50.858;3.964;2023-05-24T10:50:35;12.77;;;6.20;;
18176;SDS011;9213;50.858;3.964;2023-05-24T10:53:11;14.48;;;6.97;;
18176;SDS011;9213;50.858;3.964;2023-05-24T10:55:52;14.10;;;6.63;;
18176;SDS011;9213;50.858;3.964;2023-05-24T10:58:21;11.73;;;6.90;;
18176;SDS011;9213;50.858;3.964;2023-05-24T11:00:53;16.55;;;6.63;;
18176;SDS011;9213;50.858;3.964;2023-05-24T11:03:21;11.70;;;6.18;;
18176;SDS011;9213;50.858;3.964;2023-05-24T11:05:50;9.63;;;6.55;;
18176;SDS011;9213;50.858;3.964;2023-05-24T11:08:22;13.15;;;6.13;;
18176;SDS011;9213;50.858;3.964;2023-05-24T11:11:00;8.77;;;5.43;;
18176;SDS011;9213;50.858;3.964;2023-05-24T11:13:29;11.95;;;5.40;;
18176;SDS011;9213;50.858;3.964;2023-05-24T11:15:58;11.65;;;5.75;;
18176;SDS011;9213;50.858;3.964;2023-05-24T11:18:25;9.73;;;4.93;;
18176;SDS011;9213;50.858;3.964;2023-05-24T11:20:52;10.95;;;4.93;;
18176;SDS011;9213;50.858;3.964;2023-05-24T11:23:20;8.38;;;4.43;;
18176;SDS011;9213;50.858;3.964;2023-05-24T11:25:47;14.73;;;5.43;;
18176;SDS011;9213;50.858;3.964;2023-05-24T11:28:14;9.75;;;5.45;;
18176;SDS011;9213;50.858;3.964;2023-05-24T11:30:42;8.07;;;5.40;;
18176;SDS011;9213;50.858;3.964;2023-05-24T11:33:15;8.13;;;5.47;;
18176;SDS011;9213;50.858;3.964;2023-05-24T11:35:42;12.02;;;5.32;;
18176;SDS011;9213;50.858;3.964;2023-05-24T11:38:09;14.25;;;5.45;;
18176;SDS011;9213;50.858;3.964;2023-05-24T11:40:38;9.60;;;5.15;;
18176;SDS011;9213;50.858;3.964;2023-05-24T11:43:09;12.35;;;5.30;;
18176;SDS011;9213;50.858;3.964;2023-05-24T11:45:38;10.70;;;5.00;;
18176;SDS011;9213;50.858;3.964;2023-05-24T11:48:06;12.00;;;5.05;;
18176;SDS011;9213;50.858;3.964;2023-05-24T11:50:38;11.43;;;5.55;;
18176;SDS011;9213;50.858;3.964;2023-05-24T11:53:05;8.52;;;5.43;;
18176;SDS011;9213;50.858;3.964;2023-05-24T11:55:35;8.52;;;4.40;;
18176;SDS011;9213;50.858;3.964;2023-05-24T11:58:05;8.93;;;4.60;;
18176;SDS011;9213;50.858;3.964;2023-05-24T12:00:35;11.63;;;5.47;;
18176;SDS011;9213;50.858;3.964;2023-05-24T12:03:03;11.82;;;5.00;;
18176;SDS011;9213;50.858;3.964;2023-05-24T12:05:32;11.80;;;5.25;;
18176;SDS011;9213;50.858;3.964;2023-05-24T12:08:02;8.30;;;4.32;;
18176;SDS011;9213;50.858;3.964;2023-05-24T12:10:31;12.18;;;5.32;;
18176;SDS011;9213;50.858;3.964;2023-05-24T12:12:59;9.20;;;5.05;;
18176;SDS011;9213;50.858;3.964;2023-05-24T12:15:26;11.65;;;5.38;;
18176;SDS011;9213;50.858;3.964;2023-05-24T12:17:53;8.52;;;5.00;;
18176;SDS011;9213;50.858;3.964;2023-05-24T12:20:20;9.07;;;4.78;;
18176;SDS011;9213;50.858;3.964;2023-05-24T12:22:47;7.72;;;4.68;;
18176;SDS011;9213;50.858;3.964;2023-05-24T12:25:17;12.73;;;5.53;;
18176;SDS011;9213;50.858;3.964;2023-05-24T12:27:46;7.05;;;4.85;;
18176;SDS011;9213;50.858;3.964;2023-05-24T12:30:13;10.40;;;4.90;;
18176;SDS011;9213;50.858;3.964;2023-05-24T12:32:45;10.13;;;4.35;;
18176;SDS011;9213;50.858;3.964;2023-05-24T12:35:13;12.68;;;5.28;;
18176;SDS011;9213;50.858;3.964;2023-05-24T12:37:42;12.73;;;5.00;;
18176;SDS011;9213;50.858;3.964;2023-05-24T12:40:17;9.20;;;4.43;;
18176;SDS011;9213;50.858;3.964;2023-05-24T12:42:49;9.32;;;4.60;;
18176;SDS011;9213;50.858;3.964;2023-05-24T12:45:18;8.55;;;5.22;;
18176;SDS011;9213;50.858;3.964;2023-05-24T12:47:49;11.40;;;4.22;;
18176;SDS011;9213;50.858;3.964;2023-05-24T12:50:17;8.27;;;4.20;;
18176;SDS011;9213;50.858;3.964;2023-05-24T12:52:45;7.35;;;4.20;;
18176;SDS011;9213;50.858;3.964;2023-05-24T12:55:12;8.63;;;4.35;;
18176;SDS011;9213;50.858;3.964;2023-05-24T12:57:41;9.82;;;4.68;;
18176;SDS011;9213;50.858;3.964;2023-05-24T13:00:11;9.32;;;4.90;;
18176;SDS011;9213;50.858;3.964;2023-05-24T13:02:38;12.43;;;5.40;;
18176;SDS011;9213;50.858;3.964;2023-05-24T13:05:06;7.57;;;4.38;;
18176;SDS011;9213;50.858;3.964;2023-05-24T13:07:34;10.52;;;4.53;;
18176;SDS011;9213;50.858;3.964;2023-05-24T13:10:01;9.57;;;5.00;;
18176;SDS011;9213;50.858;3.964;2023-05-24T13:12:29;11.63;;;4.82;;
18176;SDS011;9213;50.858;3.964;2023-05-24T13:14:57;10.52;;;5.53;;
18176;SDS011;9213;50.858;3.964;2023-05-24T13:17:24;9.23;;;4.93;;
18176;SDS011;9213;50.858;3.964;2023-05-24T13:19:51;8.23;;;4.53;;
18176;SDS011;9213;50.858;3.964;2023-05-24T13:22:18;11.98;;;4.47;;
18176;SDS011;9213;50.858;3.964;2023-05-24T13:24:45;9.27;;;4.47;;
18176;SDS011;9213;50.858;3.964;2023-05-24T13:27:12;9.45;;;5.10;;
18176;SDS011;9213;50.858;3.964;2023-05-24T13:29:39;9.02;;;3.80;;
18176;SDS011;9213;50.858;3.964;2023-05-24T13:32:08;7.85;;;4.63;;
18176;SDS011;9213;50.858;3.964;2023-05-24T13:34:34;10.45;;;5.00;;
18176;SDS011;9213;50.858;3.964;2023-05-24T13:37:02;7.45;;;4.57;;
18176;SDS011;9213;50.858;3.964;2023-05-24T13:39:29;11.18;;;5.05;;
18176;SDS011;9213;50.858;3.964;2023-05-24T13:41:56;8.63;;;4.65;;
18176;SDS011;9213;50.858;3.964;2023-05-24T13:44:24;10.68;;;4.30;;
18176;SDS011;9213;50.858;3.964;2023-05-24T13:46:52;7.68;;;4.10;;
18176;SDS011;9213;50.858;3.964;2023-05-24T13:49:21;9.80;;;4.75;;
18176;SDS011;9213;50.858;3.964;2023-05-24T13:51:48;13.48;;;5.18;;
18176;SDS011;9213;50.858;3.964;2023-05-24T13:54:15;9.73;;;4.80;;
18176;SDS011;9213;50.858;3.964;2023-05-24T13:56:42;11.35;;;5.43;;
18176;SDS011;9213;50.858;3.964;2023-05-24T13:59:09;12.65;;;5.22;;
18176;SDS011;9213;50.858;3.964;2023-05-24T14:01:37;10.82;;;4.90;;
18176;SDS011;9213;50.858;3.964;2023-05-24T14:04:04;7.35;;;4.40;;
18176;SDS011;9213;50.858;3.964;2023-05-24T14:06:33;11.02;;;4.70;;
18176;SDS011;9213;50.858;3.964;2023-05-24T14:09:01;11.10;;;5.07;;
18176;SDS011;9213;50.858;3.964;2023-05-24T14:11:30;9.65;;;4.57;;
18176;SDS011;9213;50.858;3.964;2023-05-24T14:13:58;7.55;;;4.57;;
18176;SDS011;9213;50.858;3.964;2023-05-24T14:16:25;10.82;;;4.75;;
18176;SDS011;9213;50.858;3.964;2023-05-24T14:18:52;9.07;;;4.53;;
18176;SDS011;9213;50.858;3.964;2023-05-24T14:21:19;9.13;;;4.30;;
18176;SDS011;9213;50.858;3.964;2023-05-24T14:23:48;8.80;;;3.78;;
18176;SDS011;9213;50.858;3.964;2023-05-24T14:26:15;8.82;;;4.20;;
18176;SDS011;9213;50.858;3.964;2023-05-24T14:28:43;9.48;;;4.13;;
18176;SDS011;9213;50.858;3.964;2023-05-24T14:31:10;8.50;;;4.35;;
18176;SDS011;9213;50.858;3.964;2023-05-24T14:33:38;9.63;;;4.35;;
18176;SDS011;9213;50.858;3.964;2023-05-24T14:36:05;6.95;;;3.83;;
18176;SDS011;9213;50.858;3.964;2023-05-24T14:38:33;8.45;;;3.70;;
18176;SDS011;9213;50.858;3.964;2023-05-24T14:41:02;8.45;;;4.43;;
18176;SDS011;9213;50.858;3.964;2023-05-24T14:43:29;10.45;;;4.20;;
18176;SDS011;9213;50.858;3.964;2023-05-24T14:45:56;7.60;;;4.20;;
18176;SDS011;9213;50.858;3.964;2023-05-24T14:48:24;9.60;;;4.68;;
18176;SDS011;9213;50.858;3.964;2023-05-24T14:50:51;9.65;;;4.03;;
18176;SDS011;9213;50.858;3.964;2023-05-24T14:53:18;5.20;;;3.80;;
18176;SDS011;9213;50.858;3.964;2023-05-24T14:55:48;5.35;;;3.92;;
18176;SDS011;9213;50.858;3.964;2023-05-24T14:58:19;7.78;;;3.65;;
18176;SDS011;9213;50.858;3.964;2023-05-24T15:00:46;9.90;;;4.10;;
18176;SDS011;9213;50.858;3.964;2023-05-24T15:03:13;8.88;;;4.03;;